sensor_id;sensor_type;location;lat;lon;timestamp;temperature;humidity
14473;DHT22;7322;50.872;4.386;2023-03-01T00:01:20;18.80;99.90
14473;DHT22;7322;50.872;4.386;2023-03-01T00:03:50;18.80;99.90
14473;DHT22;7322;50.872;4.386;2023-03-01T00:06:24;18.80;99.90
14473;DHT22;7322;50.872;4.386;2023-03-01T00:08:53;18.80;99.90
14473;DHT22;7322;50.872;4.386;2023-03-01T00:11:22;18.80;99.90
14473;DHT22;7322;50.872;4.386;2023-03-01T00:13:51;18.80;99.90
14473;DHT22;7322;50.872;4.386;2023-03-01T00:16:21;18.80;99.90
14473;DHT22;7322;50.872;4.386;2023-03-01T00:18:56;18.80;99.90
14473;DHT22;7322;50.872;4.386;2023-03-01T00:21:26;18.80;99.90
14473;DHT22;7322;50.872;4.386;2023-03-01T00:23:55;18.80;99.90
14473;DHT22;7322;50.872;4.386;2023-03-01T00:26:29;18.80;99.90
14473;DHT22;7322;50.872;4.386;2023-03-01T00:29:05;18.80;99.90
14473;DHT22;7322;50.872;4.386;2023-03-01T00:31:34;18.70;99.90
14473;DHT22;7322;50.872;4.386;2023-03-01T00:34:28;18.70;99.90
14473;DHT22;7322;50.872;4.386;2023-03-01T00:37:11;18.80;99.90
14473;DHT22;7322;50.872;4.386;2023-03-01T00:39:38;18.70;99.90
14473;DHT22;7322;50.872;4.386;2023-03-01T00:42:11;18.70;99.90
14473;DHT22;7322;50.872;4.386;2023-03-01T00:44:41;18.70;99.90
14473;DHT22;7322;50.872;4.386;2023-03-01T00:47:14;18.70;99.90
14473;DHT22;7322;50.872;4.386;2023-03-01T00:49:44;18.70;99.90
14473;DHT22;7322;50.872;4.386;2023-03-01T00:52:14;18.70;99.90
14473;DHT22;7322;50.872;4.386;2023-03-01T00:54:41;18.70;99.90
14473;DHT22;7322;50.872;4.386;2023-03-01T00:57:08;18.70;99.90
14473;DHT22;7322;50.872;4.386;2023-03-01T00:59:38;18.70;99.90
14473;DHT22;7322;50.872;4.386;2023-03-01T01:02:11;18.70;99.90
14473;DHT22;7322;50.872;4.386;2023-03-01T01:04:39;18.70;99.90
14473;DHT22;7322;50.872;4.386;2023-03-01T01:07:09;18.70;99.90
14473;DHT22;7322;50.872;4.386;2023-03-01T01:09:40;18.70;99.90
14473;DHT22;7322;50.872;4.386;2023-03-01T01:12:14;18.60;99.90
14473;DHT22;7322;50.872;4.386;2023-03-01T01:14:49;18.70;99.90
14473;DHT22;7322;50.872;4.386;2023-03-01T01:17:21;18.60;99.90
14473;DHT22;7322;50.872;4.386;2023-03-01T01:20:05;18.60;99.90
14473;DHT22;7322;50.872;4.386;2023-03-01T01:22:38;18.60;99.90
14473;DHT22;7322;50.872;4.386;2023-03-01T01:25:17;18.60;99.90
14473;DHT22;7322;50.872;4.386;2023-03-01T01:28:02;18.60;99.90
14473;DHT22;7322;50.872;4.386;2023-03-01T01:30:33;18.60;99.90
14473;DHT22;7322;50.872;4.386;2023-03-01T01:33:11;18.60;99.90
14473;DHT22;7322;50.872;4.386;2023-03-01T01:35:47;18.60;99.90
14473;DHT22;7322;50.872;4.386;2023-03-01T01:38:23;18.60;99.90
14473;DHT22;7322;50.872;4.386;2023-03-01T01:40:52;18.60;99.90
14473;DHT22;7322;50.872;4.386;2023-03-01T01:43:24;18.60;99.90
14473;DHT22;7322;50.872;4.386;2023-03-01T01:46:03;18.60;99.90
14473;DHT22;7322;50.872;4.386;2023-03-01T01:48:35;18.60;99.90
14473;DHT22;7322;50.872;4.386;2023-03-01T01:51:17;18.60;99.90
14473;DHT22;7322;50.872;4.386;2023-03-01T01:53:48;18.60;99.90
14473;DHT22;7322;50.872;4.386;2023-03-01T01:56:29;18.50;99.90
14473;DHT22;7322;50.872;4.386;2023-03-01T01:59:18;18.50;99.90
14473;DHT22;7322;50.872;4.386;2023-03-01T02:01:52;18.60;99.90
14473;DHT22;7322;50.872;4.386;2023-03-01T02:04:21;18.50;99.90
14473;DHT22;7322;50.872;4.386;2023-03-01T02:06:57;18.50;99.90
14473;DHT22;7322;50.872;4.386;2023-03-01T02:09:27;18.60;99.90
14473;DHT22;7322;50.872;4.386;2023-03-01T02:11:55;18.50;99.90
14473;DHT22;7322;50.872;4.386;2023-03-01T02:14:30;18.50;99.90
14473;DHT22;7322;50.872;4.386;2023-03-01T02:16:59;18.50;99.90
14473;DHT22;7322;50.872;4.386;2023-03-01T02:19:43;18.50;99.90
14473;DHT22;7322;50.872;4.386;2023-03-01T02:22:21;18.50;99.90
14473;DHT22;7322;50.872;4.386;2023-03-01T02:25:02;18.50;99.90
14473;DHT22;7322;50.872;4.386;2023-03-01T02:27:38;18.50;99.90
14473;DHT22;7322;50.872;4.386;2023-03-01T02:30:10;18.50;99.90
14473;DHT22;7322;50.872;4.386;2023-03-01T02:32:44;18.50;99.90
14473;DHT22;7322;50.872;4.386;2023-03-01T02:35:13;18.40;99.90
14473;DHT22;7322;50.872;4.386;2023-03-01T02:37:42;18.40;99.90
14473;DHT22;7322;50.872;4.386;2023-03-01T02:40:14;18.40;99.90
14473;DHT22;7322;50.872;4.386;2023-03-01T02:42:48;18.40;99.90
14473;DHT22;7322;50.872;4.386;2023-03-01T02:45:24;18.50;99.90
14473;DHT22;7322;50.872;4.386;2023-03-01T02:47:53;18.50;99.90
14473;DHT22;7322;50.872;4.386;2023-03-01T02:50:53;18.40;99.90
14473;DHT22;7322;50.872;4.386;2023-03-01T02:53:32;18.40;99.90
14473;DHT22;7322;50.872;4.386;2023-03-01T02:56:09;18.40;99.90
14473;DHT22;7322;50.872;4.386;2023-03-01T02:58:39;18.40;99.90
14473;DHT22;7322;50.872;4.386;2023-03-01T03:01:18;18.40;99.90
14473;DHT22;7322;50.872;4.386;2023-03-01T03:03:45;18.40;99.90
14473;DHT22;7322;50.872;4.386;2023-03-01T03:06:19;18.40;99.90
14473;DHT22;7322;50.872;4.386;2023-03-01T03:08:48;18.40;99.90
14473;DHT22;7322;50.872;4.386;2023-03-01T03:11:21;18.40;99.90
14473;DHT22;7322;50.872;4.386;2023-03-01T03:14:00;18.40;99.90
14473;DHT22;7322;50.872;4.386;2023-03-01T03:16:32;18.40;99.90
14473;DHT22;7322;50.872;4.386;2023-03-01T03:18:59;18.40;99.90
14473;DHT22;7322;50.872;4.386;2023-03-01T03:21:31;18.40;99.90
14473;DHT22;7322;50.872;4.386;2023-03-01T03:23:59;18.40;99.90
14473;DHT22;7322;50.872;4.386;2023-03-01T03:26:47;18.40;99.90
14473;DHT22;7322;50.872;4.386;2023-03-01T03:29:19;18.40;99.90
14473;DHT22;7322;50.872;4.386;2023-03-01T03:31:54;18.40;99.90
14473;DHT22;7322;50.872;4.386;2023-03-01T03:34:22;18.40;99.90
14473;DHT22;7322;50.872;4.386;2023-03-01T03:36:53;18.30;99.90
14473;DHT22;7322;50.872;4.386;2023-03-01T03:39:29;18.30;99.90
14473;DHT22;7322;50.872;4.386;2023-03-01T03:42:09;18.40;99.90
14473;DHT22;7322;50.872;4.386;2023-03-01T03:44:39;18.30;99.90
14473;DHT22;7322;50.872;4.386;2023-03-01T03:47:14;18.30;99.90
14473;DHT22;7322;50.872;4.386;2023-03-01T03:49:48;18.30;99.90
14473;DHT22;7322;50.872;4.386;2023-03-01T03:52:19;18.30;99.90
14473;DHT22;7322;50.872;4.386;2023-03-01T03:54:53;18.30;99.90
14473;DHT22;7322;50.872;4.386;2023-03-01T03:57:40;18.30;99.90
14473;DHT22;7322;50.872;4.386;2023-03-01T04:00:11;18.30;99.90
14473;DHT22;7322;50.872;4.386;2023-03-01T04:02:54;18.30;99.90
14473;DHT22;7322;50.872;4.386;2023-03-01T04:05:23;18.30;99.90
14473;DHT22;7322;50.872;4.386;2023-03-01T04:07:51;18.30;99.90
14473;DHT22;7322;50.872;4.386;2023-03-01T04:10:35;18.30;99.90
14473;DHT22;7322;50.872;4.386;2023-03-01T04:13:04;18.30;99.90
14473;DHT22;7322;50.872;4.386;2023-03-01T04:15:32;18.20;99.90
14473;DHT22;7322;50.872;4.386;2023-03-01T04:18:01;18.20;99.90
14473;DHT22;7322;50.872;4.386;2023-03-01T04:20:33;18.20;99.90
14473;DHT22;7322;50.872;4.386;2023-03-01T04:23:04;18.30;99.90
14473;DHT22;7322;50.872;4.386;2023-03-01T04:25:47;18.20;99.90
14473;DHT22;7322;50.872;4.386;2023-03-01T04:28:19;18.30;99.90
14473;DHT22;7322;50.872;4.386;2023-03-01T04:30:54;18.20;99.90
14473;DHT22;7322;50.872;4.386;2023-03-01T04:33:24;18.30;99.90
14473;DHT22;7322;50.872;4.386;2023-03-01T04:36:05;18.20;99.90
14473;DHT22;7322;50.872;4.386;2023-03-01T04:38:35;18.30;99.90
14473;DHT22;7322;50.872;4.386;2023-03-01T04:41:07;18.20;99.90
14473;DHT22;7322;50.872;4.386;2023-03-01T04:43:37;18.20;99.90
14473;DHT22;7322;50.872;4.386;2023-03-01T04:46:05;18.20;99.90
14473;DHT22;7322;50.872;4.386;2023-03-01T04:48:36;18.20;99.90
14473;DHT22;7322;50.872;4.386;2023-03-01T04:51:04;18.20;99.90
14473;DHT22;7322;50.872;4.386;2023-03-01T04:53:33;18.20;99.90
14473;DHT22;7322;50.872;4.386;2023-03-01T04:56:02;18.20;99.90
14473;DHT22;7322;50.872;4.386;2023-03-01T04:58:30;18.20;99.90
14473;DHT22;7322;50.872;4.386;2023-03-01T05:00:58;18.20;99.90
14473;DHT22;7322;50.872;4.386;2023-03-01T05:03:26;18.20;99.90
14473;DHT22;7322;50.872;4.386;2023-03-01T05:05:58;18.20;99.90
14473;DHT22;7322;50.872;4.386;2023-03-01T05:08:27;18.20;99.90
14473;DHT22;7322;50.872;4.386;2023-03-01T05:10:56;18.20;99.90
14473;DHT22;7322;50.872;4.386;2023-03-01T05:13:23;18.20;99.90
14473;DHT22;7322;50.872;4.386;2023-03-01T05:15:54;18.20;99.90
14473;DHT22;7322;50.872;4.386;2023-03-01T05:18:23;18.20;99.90
14473;DHT22;7322;50.872;4.386;2023-03-01T05:20:52;18.20;99.90
14473;DHT22;7322;50.872;4.386;2023-03-01T05:23:24;18.10;99.90
14473;DHT22;7322;50.872;4.386;2023-03-01T05:25:53;18.10;99.90
14473;DHT22;7322;50.872;4.386;2023-03-01T05:28:20;18.10;99.90
14473;DHT22;7322;50.872;4.386;2023-03-01T05:30:47;18.10;99.90
14473;DHT22;7322;50.872;4.386;2023-03-01T05:33:18;18.10;99.90
14473;DHT22;7322;50.872;4.386;2023-03-01T05:35:49;18.10;99.90
14473;DHT22;7322;50.872;4.386;2023-03-01T05:38:20;18.10;99.90
14473;DHT22;7322;50.872;4.386;2023-03-01T05:40:51;18.10;99.90
14473;DHT22;7322;50.872;4.386;2023-03-01T05:43:18;18.10;99.90
14473;DHT22;7322;50.872;4.386;2023-03-01T05:45:50;18.10;99.90
14473;DHT22;7322;50.872;4.386;2023-03-01T05:48:22;18.10;99.90
14473;DHT22;7322;50.872;4.386;2023-03-01T05:50:54;18.10;99.90
14473;DHT22;7322;50.872;4.386;2023-03-01T05:53:22;18.10;99.90
14473;DHT22;7322;50.872;4.386;2023-03-01T05:55:53;18.10;99.90
14473;DHT22;7322;50.872;4.386;2023-03-01T05:58:20;18.20;99.90
14473;DHT22;7322;50.872;4.386;2023-03-01T06:00:49;18.20;99.90
14473;DHT22;7322;50.872;4.386;2023-03-01T06:03:18;18.40;99.90
14473;DHT22;7322;50.872;4.386;2023-03-01T06:05:56;18.50;99.90
14473;DHT22;7322;50.872;4.386;2023-03-01T06:08:31;18.60;99.90
14473;DHT22;7322;50.872;4.386;2023-03-01T06:11:02;18.80;99.90
14473;DHT22;7322;50.872;4.386;2023-03-01T06:13:30;19.10;99.90
14473;DHT22;7322;50.872;4.386;2023-03-01T06:15:58;19.30;99.90
14473;DHT22;7322;50.872;4.386;2023-03-01T06:18:27;19.50;99.90
14473;DHT22;7322;50.872;4.386;2023-03-01T06:21:03;19.80;99.90
14473;DHT22;7322;50.872;4.386;2023-03-01T06:23:34;20.00;99.90
14473;DHT22;7322;50.872;4.386;2023-03-01T06:26:07;20.20;99.90
14473;DHT22;7322;50.872;4.386;2023-03-01T06:28:34;20.40;99.90
14473;DHT22;7322;50.872;4.386;2023-03-01T06:31:02;20.60;99.90
14473;DHT22;7322;50.872;4.386;2023-03-01T06:33:35;20.80;99.90
14473;DHT22;7322;50.872;4.386;2023-03-01T06:36:22;20.90;99.90
14473;DHT22;7322;50.872;4.386;2023-03-01T06:38:49;21.00;99.90
14473;DHT22;7322;50.872;4.386;2023-03-01T06:41:18;21.10;99.90
14473;DHT22;7322;50.872;4.386;2023-03-01T06:43:48;21.10;99.90
14473;DHT22;7322;50.872;4.386;2023-03-01T06:46:15;21.20;99.90
14473;DHT22;7322;50.872;4.386;2023-03-01T06:48:46;21.20;99.90
14473;DHT22;7322;50.872;4.386;2023-03-01T06:51:15;21.20;99.90
14473;DHT22;7322;50.872;4.386;2023-03-01T06:53:51;21.10;99.90
14473;DHT22;7322;50.872;4.386;2023-03-01T06:56:20;21.10;99.90
14473;DHT22;7322;50.872;4.386;2023-03-01T06:58:54;21.10;99.90
14473;DHT22;7322;50.872;4.386;2023-03-01T07:01:27;21.10;99.90
14473;DHT22;7322;50.872;4.386;2023-03-01T07:03:54;21.00;99.90
14473;DHT22;7322;50.872;4.386;2023-03-01T07:06:53;20.90;99.90
14473;DHT22;7322;50.872;4.386;2023-03-01T07:09:46;20.90;99.90
14473;DHT22;7322;50.872;4.386;2023-03-01T07:12:40;20.80;99.90
14473;DHT22;7322;50.872;4.386;2023-03-01T07:15:09;20.80;99.90
14473;DHT22;7322;50.872;4.386;2023-03-01T07:17:43;20.70;99.90
14473;DHT22;7322;50.872;4.386;2023-03-01T07:20:22;20.60;99.90
14473;DHT22;7322;50.872;4.386;2023-03-01T07:22:53;20.60;99.90
14473;DHT22;7322;50.872;4.386;2023-03-01T07:25:25;20.50;99.90
14473;DHT22;7322;50.872;4.386;2023-03-01T07:27:56;20.50;99.90
14473;DHT22;7322;50.872;4.386;2023-03-01T07:30:23;20.40;99.90
14473;DHT22;7322;50.872;4.386;2023-03-01T07:33:09;20.40;99.90
14473;DHT22;7322;50.872;4.386;2023-03-01T07:35:46;20.40;99.90
14473;DHT22;7322;50.872;4.386;2023-03-01T07:38:35;20.30;99.90
14473;DHT22;7322;50.872;4.386;2023-03-01T07:41:22;20.20;99.90
14473;DHT22;7322;50.872;4.386;2023-03-01T07:43:56;20.20;99.90
14473;DHT22;7322;50.872;4.386;2023-03-01T07:46:23;20.10;99.90
14473;DHT22;7322;50.872;4.386;2023-03-01T07:48:50;20.10;99.90
14473;DHT22;7322;50.872;4.386;2023-03-01T07:51:23;20.10;99.90
14473;DHT22;7322;50.872;4.386;2023-03-01T07:54:06;20.00;99.90
14473;DHT22;7322;50.872;4.386;2023-03-01T07:56:41;20.00;99.90
14473;DHT22;7322;50.872;4.386;2023-03-01T07:59:09;19.90;99.90
14473;DHT22;7322;50.872;4.386;2023-03-01T08:01:48;19.90;99.90
14473;DHT22;7322;50.872;4.386;2023-03-01T08:04:17;19.90;99.90
14473;DHT22;7322;50.872;4.386;2023-03-01T08:06:53;19.80;99.90
14473;DHT22;7322;50.872;4.386;2023-03-01T08:09:34;19.80;99.90
14473;DHT22;7322;50.872;4.386;2023-03-01T08:12:02;19.80;99.90
14473;DHT22;7322;50.872;4.386;2023-03-01T08:14:32;19.70;99.90
14473;DHT22;7322;50.872;4.386;2023-03-01T08:17:03;19.70;99.90
14473;DHT22;7322;50.872;4.386;2023-03-01T08:19:32;19.70;99.90
14473;DHT22;7322;50.872;4.386;2023-03-01T08:22:00;19.60;99.90
14473;DHT22;7322;50.872;4.386;2023-03-01T08:24:37;19.60;99.90
14473;DHT22;7322;50.872;4.386;2023-03-01T08:27:09;19.60;99.90
14473;DHT22;7322;50.872;4.386;2023-03-01T08:29:39;19.50;99.90
14473;DHT22;7322;50.872;4.386;2023-03-01T08:32:06;19.50;99.90
14473;DHT22;7322;50.872;4.386;2023-03-01T08:34:36;19.50;99.90
14473;DHT22;7322;50.872;4.386;2023-03-01T08:37:21;19.50;99.90
14473;DHT22;7322;50.872;4.386;2023-03-01T08:39:56;19.50;99.90
14473;DHT22;7322;50.872;4.386;2023-03-01T08:42:41;19.40;99.90
14473;DHT22;7322;50.872;4.386;2023-03-01T08:45:11;19.40;99.90
14473;DHT22;7322;50.872;4.386;2023-03-01T08:47:39;19.40;99.90
14473;DHT22;7322;50.872;4.386;2023-03-01T08:50:17;19.40;99.90
14473;DHT22;7322;50.872;4.386;2023-03-01T08:52:46;19.40;99.90
14473;DHT22;7322;50.872;4.386;2023-03-01T08:55:13;19.30;99.90
14473;DHT22;7322;50.872;4.386;2023-03-01T08:57:49;19.30;99.90
14473;DHT22;7322;50.872;4.386;2023-03-01T09:00:19;19.30;99.90
14473;DHT22;7322;50.872;4.386;2023-03-01T09:02:46;19.20;99.90
14473;DHT22;7322;50.872;4.386;2023-03-01T09:05:14;19.20;99.90
14473;DHT22;7322;50.872;4.386;2023-03-01T09:07:43;19.20;99.90
14473;DHT22;7322;50.872;4.386;2023-03-01T09:10:17;19.20;99.90
14473;DHT22;7322;50.872;4.386;2023-03-01T09:12:54;19.20;99.90
14473;DHT22;7322;50.872;4.386;2023-03-01T09:15:30;19.20;99.90
14473;DHT22;7322;50.872;4.386;2023-03-01T09:18:01;19.10;99.90
14473;DHT22;7322;50.872;4.386;2023-03-01T09:20:38;19.10;99.90
14473;DHT22;7322;50.872;4.386;2023-03-01T09:23:07;19.20;99.90
14473;DHT22;7322;50.872;4.386;2023-03-01T09:25:42;19.10;99.90
14473;DHT22;7322;50.872;4.386;2023-03-01T09:28:28;19.10;99.90
14473;DHT22;7322;50.872;4.386;2023-03-01T09:30:59;19.10;99.90
14473;DHT22;7322;50.872;4.386;2023-03-01T09:33:37;19.10;99.90
14473;DHT22;7322;50.872;4.386;2023-03-01T09:36:10;19.10;99.90
14473;DHT22;7322;50.872;4.386;2023-03-01T09:38:49;19.10;99.90
14473;DHT22;7322;50.872;4.386;2023-03-01T09:41:38;19.00;99.90
14473;DHT22;7322;50.872;4.386;2023-03-01T09:44:31;19.00;99.90
14473;DHT22;7322;50.872;4.386;2023-03-01T09:47:23;19.00;99.90
14473;DHT22;7322;50.872;4.386;2023-03-01T09:49:59;19.00;99.90
14473;DHT22;7322;50.872;4.386;2023-03-01T09:52:33;19.00;99.90
14473;DHT22;7322;50.872;4.386;2023-03-01T09:55:01;19.00;99.90
14473;DHT22;7322;50.872;4.386;2023-03-01T09:57:36;19.00;99.90
14473;DHT22;7322;50.872;4.386;2023-03-01T10:00:30;19.00;99.90
14473;DHT22;7322;50.872;4.386;2023-03-01T10:03:08;19.00;99.90
14473;DHT22;7322;50.872;4.386;2023-03-01T10:05:47;18.90;99.90
14473;DHT22;7322;50.872;4.386;2023-03-01T10:08:24;18.90;99.90
14473;DHT22;7322;50.872;4.386;2023-03-01T10:11:18;18.90;99.90
14473;DHT22;7322;50.872;4.386;2023-03-01T10:13:58;18.90;99.90
14473;DHT22;7322;50.872;4.386;2023-03-01T10:16:37;18.90;99.90
14473;DHT22;7322;50.872;4.386;2023-03-01T10:19:27;18.90;99.90
14473;DHT22;7322;50.872;4.386;2023-03-01T10:22:09;18.90;99.90
14473;DHT22;7322;50.872;4.386;2023-03-01T10:24:39;18.90;99.90
14473;DHT22;7322;50.872;4.386;2023-03-01T10:27:11;18.80;99.90
14473;DHT22;7322;50.872;4.386;2023-03-01T10:29:56;18.80;99.90
14473;DHT22;7322;50.872;4.386;2023-03-01T10:32:31;18.90;99.90
14473;DHT22;7322;50.872;4.386;2023-03-01T10:35:16;18.80;99.90
14473;DHT22;7322;50.872;4.386;2023-03-01T10:37:57;18.90;99.90
14473;DHT22;7322;50.872;4.386;2023-03-01T10:40:34;18.80;99.90
14473;DHT22;7322;50.872;4.386;2023-03-01T10:43:11;18.90;99.90
14473;DHT22;7322;50.872;4.386;2023-03-01T10:45:39;18.80;99.90
14473;DHT22;7322;50.872;4.386;2023-03-01T10:48:13;18.80;99.90
14473;DHT22;7322;50.872;4.386;2023-03-01T10:51:07;18.80;99.90
14473;DHT22;7322;50.872;4.386;2023-03-01T10:53:48;18.80;99.90
14473;DHT22;7322;50.872;4.386;2023-03-01T10:56:15;18.80;99.90
14473;DHT22;7322;50.872;4.386;2023-03-01T10:58:57;18.80;99.90
14473;DHT22;7322;50.872;4.386;2023-03-01T11:01:37;18.80;99.90
14473;DHT22;7322;50.872;4.386;2023-03-01T11:04:13;18.80;99.90
14473;DHT22;7322;50.872;4.386;2023-03-01T11:06:57;18.80;99.90
14473;DHT22;7322;50.872;4.386;2023-03-01T11:09:33;18.90;99.90
14473;DHT22;7322;50.872;4.386;2023-03-01T11:12:14;18.80;99.90
14473;DHT22;7322;50.872;4.386;2023-03-01T11:14:47;18.80;99.90
14473;DHT22;7322;50.872;4.386;2023-03-01T11:17:27;18.80;99.90
14473;DHT22;7322;50.872;4.386;2023-03-01T11:20:02;18.90;99.90
14473;DHT22;7322;50.872;4.386;2023-03-01T11:22:34;18.90;99.90
14473;DHT22;7322;50.872;4.386;2023-03-01T11:25:12;19.00;99.90
14473;DHT22;7322;50.872;4.386;2023-03-01T11:27:43;19.10;99.90
14473;DHT22;7322;50.872;4.386;2023-03-01T11:30:18;19.20;99.90
14473;DHT22;7322;50.872;4.386;2023-03-01T11:32:55;19.30;99.90
14473;DHT22;7322;50.872;4.386;2023-03-01T11:35:28;19.40;99.90
14473;DHT22;7322;50.872;4.386;2023-03-01T11:38:08;19.50;99.90
14473;DHT22;7322;50.872;4.386;2023-03-01T11:40:41;19.60;99.90
14473;DHT22;7322;50.872;4.386;2023-03-01T11:43:16;19.70;99.90
14473;DHT22;7322;50.872;4.386;2023-03-01T11:46:02;19.80;99.90
14473;DHT22;7322;50.872;4.386;2023-03-01T11:48:48;19.90;99.90
14473;DHT22;7322;50.872;4.386;2023-03-01T11:51:33;19.90;99.90
14473;DHT22;7322;50.872;4.386;2023-03-01T11:54:17;20.00;99.90
14473;DHT22;7322;50.872;4.386;2023-03-01T11:57:04;20.10;99.90
14473;DHT22;7322;50.872;4.386;2023-03-01T12:00:04;20.20;99.90
14473;DHT22;7322;50.872;4.386;2023-03-01T12:03:07;20.30;99.90
14473;DHT22;7322;50.872;4.386;2023-03-01T12:09:38;20.40;99.90
14473;DHT22;7322;50.872;4.386;2023-03-01T12:12:38;20.40;99.90
14473;DHT22;7322;50.872;4.386;2023-03-01T12:18:53;20.40;99.90
14473;DHT22;7322;50.872;4.386;2023-03-01T12:21:34;20.40;99.90
14473;DHT22;7322;50.872;4.386;2023-03-01T12:27:41;20.40;99.90
14473;DHT22;7322;50.872;4.386;2023-03-01T12:30:29;20.40;99.90
14473;DHT22;7322;50.872;4.386;2023-03-01T12:33:17;20.40;99.90
14473;DHT22;7322;50.872;4.386;2023-03-01T12:38:49;20.40;99.90
14473;DHT22;7322;50.872;4.386;2023-03-01T12:41:43;20.30;99.90
14473;DHT22;7322;50.872;4.386;2023-03-01T12:44:24;20.30;99.90
14473;DHT22;7322;50.872;4.386;2023-03-01T12:47:26;20.40;99.90
14473;DHT22;7322;50.872;4.386;2023-03-01T12:50:01;20.40;99.90
14473;DHT22;7322;50.872;4.386;2023-03-01T12:52:37;20.30;99.90
14473;DHT22;7322;50.872;4.386;2023-03-01T12:55:18;20.30;99.90
14473;DHT22;7322;50.872;4.386;2023-03-01T12:58:01;20.30;99.90
14473;DHT22;7322;50.872;4.386;2023-03-01T13:00:36;20.30;99.90
14473;DHT22;7322;50.872;4.386;2023-03-01T13:03:21;20.20;99.90
14473;DHT22;7322;50.872;4.386;2023-03-01T13:06:04;20.20;99.90
14473;DHT22;7322;50.872;4.386;2023-03-01T13:08:38;20.20;99.90
14473;DHT22;7322;50.872;4.386;2023-03-01T13:11:16;20.20;99.90
14473;DHT22;7322;50.872;4.386;2023-03-01T13:13:45;20.10;99.90
14473;DHT22;7322;50.872;4.386;2023-03-01T13:16:39;20.10;99.90
14473;DHT22;7322;50.872;4.386;2023-03-01T13:19:16;20.10;99.90
14473;DHT22;7322;50.872;4.386;2023-03-01T13:21:44;20.00;99.90
14473;DHT22;7322;50.872;4.386;2023-03-01T13:24:38;20.00;99.90
14473;DHT22;7322;50.872;4.386;2023-03-01T13:27:22;20.00;99.90
14473;DHT22;7322;50.872;4.386;2023-03-01T13:30:00;20.00;99.90
14473;DHT22;7322;50.872;4.386;2023-03-01T13:32:36;20.00;99.90
14473;DHT22;7322;50.872;4.386;2023-03-01T13:38:44;20.00;99.90
14473;DHT22;7322;50.872;4.386;2023-03-01T13:41:49;20.00;99.90
14473;DHT22;7322;50.872;4.386;2023-03-01T13:44:24;20.00;99.90
14473;DHT22;7322;50.872;4.386;2023-03-01T13:46:53;20.00;99.90
14473;DHT22;7322;50.872;4.386;2023-03-01T13:49:25;20.10;99.90
14473;DHT22;7322;50.872;4.386;2023-03-01T13:51:53;20.10;99.90
14473;DHT22;7322;50.872;4.386;2023-03-01T13:54:31;20.20;99.90
14473;DHT22;7322;50.872;4.386;2023-03-01T13:57:03;20.30;99.90
14473;DHT22;7322;50.872;4.386;2023-03-01T13:59:47;20.30;99.90
14473;DHT22;7322;50.872;4.386;2023-03-01T14:02:23;20.40;99.90
14473;DHT22;7322;50.872;4.386;2023-03-01T14:04:58;20.40;99.90
14473;DHT22;7322;50.872;4.386;2023-03-01T14:07:27;20.50;99.90
14473;DHT22;7322;50.872;4.386;2023-03-01T14:10:05;20.50;99.90
14473;DHT22;7322;50.872;4.386;2023-03-01T14:12:53;20.50;99.90
14473;DHT22;7322;50.872;4.386;2023-03-01T14:15:27;20.60;99.90
14473;DHT22;7322;50.872;4.386;2023-03-01T14:18:08;20.50;99.90
14473;DHT22;7322;50.872;4.386;2023-03-01T14:20:44;20.60;99.90
14473;DHT22;7322;50.872;4.386;2023-03-01T14:23:20;20.60;99.90
14473;DHT22;7322;50.872;4.386;2023-03-01T14:25:54;20.60;99.90
14473;DHT22;7322;50.872;4.386;2023-03-01T14:28:24;20.60;99.90
14473;DHT22;7322;50.872;4.386;2023-03-01T14:31:31;20.50;99.90
14473;DHT22;7322;50.872;4.386;2023-03-01T14:34:21;20.50;99.90
14473;DHT22;7322;50.872;4.386;2023-03-01T14:36:54;20.50;99.90
14473;DHT22;7322;50.872;4.386;2023-03-01T14:39:32;20.50;99.90
14473;DHT22;7322;50.872;4.386;2023-03-01T14:42:00;20.50;99.90
14473;DHT22;7322;50.872;4.386;2023-03-01T14:44:41;20.40;99.90
14473;DHT22;7322;50.872;4.386;2023-03-01T14:47:13;20.40;99.90
14473;DHT22;7322;50.872;4.386;2023-03-01T14:49:41;20.40;99.90
14473;DHT22;7322;50.872;4.386;2023-03-01T14:52:31;20.40;99.90
14473;DHT22;7322;50.872;4.386;2023-03-01T14:55:20;20.40;99.90
14473;DHT22;7322;50.872;4.386;2023-03-01T14:57:49;20.30;99.90
14473;DHT22;7322;50.872;4.386;2023-03-01T15:00:19;20.30;99.90
14473;DHT22;7322;50.872;4.386;2023-03-01T15:02:49;20.30;99.90
14473;DHT22;7322;50.872;4.386;2023-03-01T15:05:22;20.20;99.90
14473;DHT22;7322;50.872;4.386;2023-03-01T15:07:54;20.20;99.90
14473;DHT22;7322;50.872;4.386;2023-03-01T15:10:23;20.20;99.90
14473;DHT22;7322;50.872;4.386;2023-03-01T15:12:53;20.20;99.90
14473;DHT22;7322;50.872;4.386;2023-03-01T15:15:32;20.10;99.90
14473;DHT22;7322;50.872;4.386;2023-03-01T15:18:02;20.10;99.90
14473;DHT22;7322;50.872;4.386;2023-03-01T15:20:35;20.10;99.90
14473;DHT22;7322;50.872;4.386;2023-03-01T15:23:05;20.10;99.90
14473;DHT22;7322;50.872;4.386;2023-03-01T15:25:33;20.00;99.90
14473;DHT22;7322;50.872;4.386;2023-03-01T15:28:18;20.00;99.90
14473;DHT22;7322;50.872;4.386;2023-03-01T15:30:54;20.00;99.90
14473;DHT22;7322;50.872;4.386;2023-03-01T15:33:35;20.00;99.90
14473;DHT22;7322;50.872;4.386;2023-03-01T15:36:36;19.90;99.90
14473;DHT22;7322;50.872;4.386;2023-03-01T15:42:13;19.90;99.90
14473;DHT22;7322;50.872;4.386;2023-03-01T15:44:42;19.80;99.90
14473;DHT22;7322;50.872;4.386;2023-03-01T15:47:26;19.90;99.90
14473;DHT22;7322;50.872;4.386;2023-03-01T15:49:54;19.90;99.90
14473;DHT22;7322;50.872;4.386;2023-03-01T15:52:24;19.90;99.90
14473;DHT22;7322;50.872;4.386;2023-03-01T15:54:57;19.90;99.90
14473;DHT22;7322;50.872;4.386;2023-03-01T15:57:34;20.00;99.90
14473;DHT22;7322;50.872;4.386;2023-03-01T16:00:10;20.10;99.90
14473;DHT22;7322;50.872;4.386;2023-03-01T16:02:45;20.10;99.90
14473;DHT22;7322;50.872;4.386;2023-03-01T16:05:22;20.20;99.90
14473;DHT22;7322;50.872;4.386;2023-03-01T16:07:51;20.20;99.90
14473;DHT22;7322;50.872;4.386;2023-03-01T16:10:25;20.30;99.90
14473;DHT22;7322;50.872;4.386;2023-03-01T16:12:54;20.40;99.90
14473;DHT22;7322;50.872;4.386;2023-03-01T16:15:25;20.40;99.90
14473;DHT22;7322;50.872;4.386;2023-03-01T16:17:54;20.40;99.90
14473;DHT22;7322;50.872;4.386;2023-03-01T16:20:24;20.50;99.90
14473;DHT22;7322;50.872;4.386;2023-03-01T16:22:52;20.60;99.90
14473;DHT22;7322;50.872;4.386;2023-03-01T16:25:20;20.60;99.90
14473;DHT22;7322;50.872;4.386;2023-03-01T16:27:56;20.60;99.90
14473;DHT22;7322;50.872;4.386;2023-03-01T16:30:36;20.70;99.90
14473;DHT22;7322;50.872;4.386;2023-03-01T16:33:06;20.70;99.90
14473;DHT22;7322;50.872;4.386;2023-03-01T16:35:44;20.70;99.90
14473;DHT22;7322;50.872;4.386;2023-03-01T16:38:18;20.70;99.90
14473;DHT22;7322;50.872;4.386;2023-03-01T16:40:53;20.70;99.90
14473;DHT22;7322;50.872;4.386;2023-03-01T16:43:44;20.70;99.90
14473;DHT22;7322;50.872;4.386;2023-03-01T16:46:13;20.60;99.90
14473;DHT22;7322;50.872;4.386;2023-03-01T16:48:58;20.60;99.90
14473;DHT22;7322;50.872;4.386;2023-03-01T16:51:53;20.60;99.90
14473;DHT22;7322;50.872;4.386;2023-03-01T16:54:23;20.60;99.90
14473;DHT22;7322;50.872;4.386;2023-03-01T16:57:01;20.50;99.90